Eastover, North Carolina
Current Conditions -  °F | °C
As of 5:53 PM on Friday 19 Dec 2014 (Local Time) from KFAY Reporting Station
Clear Clear  
Wind Chill: 49°   Ceiling: Unl
Heat Index: 49°   Visibility: 10mi
Dew Point: 31°   Wind: 3mph
Humidity: 50%   Direction: 40°NE
Pressure: 30.14"   Gusts: NA
Location:  35.072°N, 78.8095°W
Report Text: KFAY 192253Z AUTO 04003KT 10SM CLR 09/M01 A3014 RMK AO2 SLP203 T00941006
Loading
Personal Weather Stations






























Interactive Weather Map New forecast layout! Learn more

10-Day Weather Forecast

Advertisements
Track Severe Weather on mobile